Time;durP1;ratioP1;P1;durP2;ratioP2;P2;SDS_P1;SDS_P2;PMS_P1;PMS_P2;Temp;Humidity;BMP_temperature;BMP_pressure;BME280_temperature;BME280_humidity;BME280_pressure;Samples;Min_cycle;Max_cycle;Signal;HPM_P1;HPM_P2
2021/05/24 00:00:26;;;;;;;5.10;3.23;;;10.20;85.20;;;;;;5029260;28;20511;-75
2021/05/24 00:02:52;;;;;;;5.30;3.57;;;10.20;84.90;;;;;;5032717;28;20280;-75
2021/05/24 00:05:21;;;;;;;6.17;3.57;;;10.20;84.40;;;;;;5050482;28;20979;-75
2021/05/24 00:07:47;;;;;;;4.60;3.00;;;10.20;84.40;;;;;;5051825;28;20435;-75
2021/05/24 00:10:17;;;;;;;6.70;3.03;;;10.10;84.40;;;;;;5042238;28;20574;-76
2021/05/24 00:12:46;;;;;;;8.47;3.50;;;10.10;85.00;;;;;;5047299;28;20514;-76
2021/05/24 00:15:14;;;;;;;8.30;3.10;;;10.10;84.70;;;;;;5040983;28;20950;-77
2021/05/24 00:17:40;;;;;;;7.17;4.10;;;10.10;85.00;;;;;;5046072;28;20442;-77
2021/05/24 00:20:06;;;;;;;3.57;2.70;;;10.10;84.70;;;;;;5034520;28;20931;-77
2021/05/24 00:22:32;;;;;;;4.13;3.17;;;10.10;85.20;;;;;;5033422;28;20193;-78
2021/05/24 00:24:58;;;;;;;8.20;3.47;;;10.10;84.70;;;;;;5031646;28;20427;-77
2021/05/24 00:27:24;;;;;;;5.43;2.97;;;10.10;84.40;;;;;;5042613;28;20193;-76
2021/05/24 00:29:50;;;;;;;4.43;3.10;;;10.00;84.60;;;;;;5041136;28;20608;-76
2021/05/24 00:32:16;;;;;;;5.00;3.60;;;10.00;84.40;;;;;;5036765;28;20218;-78
2021/05/24 00:34:41;;;;;;;4.27;2.93;;;10.00;84.60;;;;;;5038699;28;20450;-76
2021/05/24 00:37:07;;;;;;;5.27;3.03;;;10.00;85.20;;;;;;5043717;28;20212;-77
2021/05/24 00:39:33;;;;;;;3.60;3.00;;;10.00;85.30;;;;;;5041807;28;20216;-77
2021/05/24 00:41:59;;;;;;;4.93;3.20;;;9.90;85.30;;;;;;5036510;28;20267;-77
2021/05/24 00:44:25;;;;;;;4.93;2.60;;;9.90;85.00;;;;;;5038804;28;20613;-76
2021/05/24 00:46:51;;;;;;;4.43;2.97;;;9.90;84.90;;;;;;5030121;28;20216;-77
2021/05/24 00:49:17;;;;;;;5.83;3.17;;;9.80;84.90;;;;;;5041138;28;20422;-76
2021/05/24 00:51:42;;;;;;;3.87;3.10;;;9.80;85.60;;;;;;5032413;28;20519;-76
2021/05/24 00:54:08;;;;;;;5.70;2.80;;;9.70;86.20;;;;;;5030258;28;20188;-75
2021/05/24 00:56:34;;;;;;;5.17;3.10;;;9.60;86.50;;;;;;5043855;28;20212;-77
2021/05/24 00:58:59;;;;;;;5.10;3.00;;;9.60;86.50;;;;;;5029106;28;20209;-76
2021/05/24 01:01:28;;;;;;;3.97;2.80;;;9.50;86.60;;;;;;5043511;28;20201;-76
2021/05/24 01:03:57;;;;;;;6.53;3.47;;;9.50;86.80;;;;;;5040335;28;20872;-75
2021/05/24 01:06:23;;;;;;;5.53;3.30;;;9.40;86.90;;;;;;5036340;28;20450;-77
2021/05/24 01:08:48;;;;;;;5.30;3.70;;;9.40;87.00;;;;;;5037685;28;20451;-75
2021/05/24 01:11:14;;;;;;;3.50;2.77;;;9.40;87.10;;;;;;5031602;28;20622;-77
2021/05/24 01:13:40;;;;;;;6.93;3.60;;;9.30;87.30;;;;;;5038564;28;20633;-76
2021/05/24 01:16:06;;;;;;;4.07;3.20;;;9.40;87.10;;;;;;5039596;28;20450;-75
2021/05/24 01:18:32;;;;;;;6.13;3.17;;;9.30;87.40;;;;;;5040363;28;20560;-75
2021/05/24 01:20:57;;;;;;;10.40;4.10;;;9.30;87.60;;;;;;5047014;28;20279;-76
2021/05/24 01:23:27;;;;;;;5.40;3.13;;;9.30;87.60;;;;;;5033345;28;20185;-75
2021/05/24 01:25:53;;;;;;;5.87;3.53;;;9.30;87.70;;;;;;5039095;28;20204;-74
2021/05/24 01:28:20;;;;;;;8.70;3.67;;;9.30;87.60;;;;;;5040847;28;20427;-75
2021/05/24 01:30:47;;;;;;;7.87;2.87;;;9.30;87.60;;;;;;5046391;28;20474;-76
2021/05/24 01:33:13;;;;;;;4.90;3.50;;;9.30;87.70;;;;;;5046152;28;20477;-77
2021/05/24 01:35:40;;;;;;;7.33;3.07;;;9.20;88.00;;;;;;5047346;28;20938;-78
2021/05/24 01:38:09;;;;;;;4.10;3.07;;;9.20;88.10;;;;;;5044535;28;20506;-76
2021/05/24 01:40:36;;;;;;;4.10;3.33;;;9.20;88.30;;;;;;5032341;28;20432;-74
2021/05/24 01:43:04;;;;;;;7.73;3.57;;;9.20;88.10;;;;;;5033431;28;20477;-75
2021/05/24 01:45:30;;;;;;;4.63;3.33;;;9.20;88.30;;;;;;5046225;28;20447;-75
2021/05/24 01:47:56;;;;;;;6.87;3.47;;;9.20;88.40;;;;;;5046277;28;20438;-79
2021/05/24 01:50:22;;;;;;;5.77;2.80;;;9.20;88.40;;;;;;5039471;28;20659;-76
2021/05/24 01:52:49;;;;;;;4.10;2.73;;;9.30;88.30;;;;;;5051555;28;20431;-75
2021/05/24 01:55:15;;;;;;;3.67;3.30;;;9.10;88.30;;;;;;5045987;28;20448;-76
2021/05/24 01:57:41;;;;;;;3.23;2.63;;;9.10;88.60;;;;;;5046406;28;20442;-75
2021/05/24 02:00:12;;;;;;;7.10;3.43;;;9.10;88.30;;;;;;5039380;28;20427;-76
2021/05/24 02:02:42;;;;;;;4.93;3.10;;;9.10;88.60;;;;;;5038328;28;20821;-75
2021/05/24 02:05:09;;;;;;;6.07;4.20;;;9.10;88.70;;;;;;5044523;28;20456;-74
2021/05/24 02:07:36;;;;;;;5.13;3.60;;;9.00;89.20;;;;;;5045782;28;20560;-77
2021/05/24 02:10:04;;;;;;;5.03;3.00;;;8.90;89.60;;;;;;5034919;28;20458;-75
2021/05/24 02:12:30;;;;;;;4.43;2.60;;;8.90;90.00;;;;;;5033185;28;20424;-74
2021/05/24 02:14:56;;;;;;;4.63;2.93;;;8.90;90.10;;;;;;5032906;28;20426;-76
2021/05/24 02:17:22;;;;;;;6.07;3.30;;;8.90;90.20;;;;;;5046225;28;20266;-75
2021/05/24 02:19:49;;;;;;;5.97;2.83;;;8.90;90.10;;;;;;5032067;28;20195;-75
2021/05/24 02:22:18;;;;;;;4.47;3.57;;;8.90;90.00;;;;;;5032818;28;20897;-75
2021/05/24 02:24:43;;;;;;;6.33;3.33;;;8.90;90.00;;;;;;5042568;28;20463;-77
2021/05/24 02:27:09;;;;;;;6.60;3.60;;;8.90;90.00;;;;;;5045486;28;21005;-75
2021/05/24 02:29:36;;;;;;;3.33;2.67;;;8.90;90.00;;;;;;5040574;28;20337;-75
2021/05/24 02:32:03;;;;;;;5.93;4.00;;;8.90;89.90;;;;;;5049342;28;20438;-77
2021/05/24 02:34:29;;;;;;;4.83;3.27;;;8.90;89.70;;;;;;5040457;28;20458;-77
2021/05/24 02:36:55;;;;;;;6.03;3.60;;;8.80;90.10;;;;;;5036008;28;20471;-76
2021/05/24 02:39:21;;;;;;;6.07;3.30;;;8.80;90.30;;;;;;5040363;28;20192;-75
2021/05/24 02:41:47;;;;;;;6.70;3.90;;;8.80;90.50;;;;;;5038865;28;20426;-75
2021/05/24 02:44:12;;;;;;;6.33;3.17;;;8.80;90.50;;;;;;5042645;28;20185;-76
2021/05/24 02:46:38;;;;;;;4.10;3.07;;;8.80;90.50;;;;;;5045653;28;20224;-75
2021/05/24 02:49:04;;;;;;;5.63;3.57;;;8.80;90.50;;;;;;5041721;28;20422;-76
2021/05/24 02:51:30;;;;;;;6.70;3.50;;;8.80;90.50;;;;;;5051457;28;20915;-75
2021/05/24 02:53:56;;;;;;;6.83;3.40;;;8.80;90.50;;;;;;5057458;28;20448;-78
2021/05/24 02:56:22;;;;;;;3.47;2.57;;;8.80;90.40;;;;;;5058731;28;20209;-76
2021/05/24 02:58:48;;;;;;;4.37;3.07;;;8.70;90.30;;;;;;5035456;28;20253;-77
2021/05/24 03:01:14;;;;;;;4.13;3.37;;;8.80;90.40;;;;;;5035668;28;20229;-78
2021/05/24 03:03:40;;;;;;;9.20;3.90;;;8.80;89.70;;;;;;5038152;28;20769;-76
2021/05/24 03:06:06;;;;;;;4.30;3.30;;;8.80;89.70;;;;;;5047045;28;20455;-75
2021/05/24 03:08:32;;;;;;;4.77;3.37;;;8.80;89.90;;;;;;5043101;28;20449;-76
2021/05/24 03:10:59;;;;;;;7.40;4.10;;;8.80;90.00;;;;;;5042236;28;20201;-76
2021/05/24 03:13:26;;;;;;;6.87;3.33;;;8.80;90.00;;;;;;5039092;28;20424;-75
2021/05/24 03:15:56;;;;;;;8.07;4.30;;;8.80;90.10;;;;;;5047766;28;20439;-76
2021/05/24 03:18:22;;;;;;;5.30;3.80;;;8.80;90.10;;;;;;5032515;28;20416;-76
2021/05/24 03:20:48;;;;;;;5.03;3.53;;;8.80;90.10;;;;;;5034390;28;20461;-77
2021/05/24 03:23:14;;;;;;;5.67;3.50;;;8.90;90.00;;;;;;5042687;28;20507;-75
2021/05/24 03:25:40;;;;;;;4.63;3.03;;;8.80;89.50;;;;;;5044161;28;20531;-75
2021/05/24 03:28:06;;;;;;;7.73;3.57;;;8.90;89.30;;;;;;5041300;28;20952;-76
2021/05/24 03:30:32;;;;;;;5.30;3.90;;;8.90;89.20;;;;;;5035149;28;20470;-74
2021/05/24 03:32:58;;;;;;;6.73;3.37;;;8.80;89.20;;;;;;5043281;28;20434;-75
2021/05/24 03:35:24;;;;;;;5.60;3.80;;;8.80;89.30;;;;;;5043787;28;20435;-75
2021/05/24 03:37:49;;;;;;;4.67;3.10;;;8.70;89.60;;;;;;5047317;28;20929;-76
2021/05/24 03:40:16;;;;;;;5.93;3.37;;;8.80;89.60;;;;;;5045728;28;20799;-76
2021/05/24 03:42:42;;;;;;;6.47;3.33;;;8.80;89.90;;;;;;5034296;28;20185;-74
2021/05/24 03:45:23;;;;;;;6.53;3.37;;;8.90;90.10;;;;;;5048668;28;20522;-74
2021/05/24 03:47:50;;;;;;;8.60;3.40;;;8.90;89.90;;;;;;5036937;28;20419;-75
2021/05/24 03:50:16;;;;;;;11.60;3.77;;;9.00;89.70;;;;;;5038062;28;20502;-74
2021/05/24 03:52:43;;;;;;;8.40;3.10;;;9.10;89.60;;;;;;5037824;28;20434;-75
2021/05/24 03:55:10;;;;;;;4.97;3.17;;;9.10;89.60;;;;;;5036957;28;20443;-75
2021/05/24 03:57:36;;;;;;;6.20;3.00;;;9.10;89.60;;;;;;5036508;28;20438;-77
2021/05/24 04:00:05;;;;;;;5.23;2.60;;;9.10;89.50;;;;;;5043700;28;20428;-76
2021/05/24 04:02:30;;;;;;;3.67;2.70;;;9.10;89.20;;;;;;5042724;28;20454;-75
2021/05/24 04:04:57;;;;;;;5.07;2.80;;;9.10;89.20;;;;;;5029907;28;20428;-75
2021/05/24 04:07:24;;;;;;;3.60;2.40;;;9.10;89.30;;;;;;5036107;28;20181;-76
2021/05/24 04:09:51;;;;;;;3.10;2.40;;;9.00;89.20;;;;;;5050408;28;20455;-78
2021/05/24 04:12:18;;;;;;;4.77;3.30;;;9.10;89.00;;;;;;5032748;28;20420;-76
2021/05/24 04:14:44;;;;;;;4.20;2.70;;;9.10;89.00;;;;;;5042454;28;20469;-75
2021/05/24 04:17:13;;;;;;;5.90;3.40;;;9.20;88.90;;;;;;5030960;28;20943;-76
2021/05/24 04:19:41;;;;;;;5.70;2.83;;;9.30;88.10;;;;;;5030909;28;20448;-76
2021/05/24 04:22:06;;;;;;;4.87;2.80;;;9.30;88.00;;;;;;5030825;28;20957;-76
2021/05/24 04:24:32;;;;;;;3.10;2.47;;;9.20;88.30;;;;;;5042469;28;20432;-77
2021/05/24 04:26:58;;;;;;;4.03;2.17;;;9.20;89.00;;;;;;5030556;28;20270;-78
2021/05/24 04:29:24;;;;;;;4.73;2.70;;;9.30;89.00;;;;;;5030369;28;20185;-76
2021/05/24 04:31:49;;;;;;;3.83;2.40;;;9.40;88.90;;;;;;5017150;28;20202;-76
2021/05/24 04:34:15;;;;;;;4.80;2.17;;;9.50;88.00;;;;;;5038380;28;20188;-75
2021/05/24 04:36:41;;;;;;;4.53;2.33;;;9.50;87.80;;;;;;5037113;28;20201;-77
2021/05/24 04:39:07;;;;;;;4.67;2.40;;;9.50;87.70;;;;;;5042968;28;20239;-76
2021/05/24 04:41:32;;;;;;;3.53;2.53;;;9.50;86.20;;;;;;5044108;28;20184;-74
2021/05/24 04:44:10;;;;;;;3.37;2.17;;;9.60;86.20;;;;;;5037983;28;20275;-77
2021/05/24 04:46:35;;;;;;;4.20;2.50;;;9.60;86.80;;;;;;5035259;28;20691;-76
2021/05/24 04:49:01;;;;;;;3.50;2.50;;;9.70;86.90;;;;;;5032874;28;20439;-75
2021/05/24 04:51:27;;;;;;;3.10;2.20;;;9.80;86.90;;;;;;5047739;28;20315;-75
2021/05/24 04:53:52;;;;;;;8.50;3.50;;;9.90;86.90;;;;;;5034477;28;20196;-76
2021/05/24 04:56:18;;;;;;;6.63;2.53;;;9.90;86.60;;;;;;5047587;28;20223;-76
2021/05/24 04:58:44;;;;;;;3.10;2.53;;;9.90;86.20;;;;;;5042785;28;20184;-76
2021/05/24 05:01:10;;;;;;;3.43;2.50;;;10.10;85.70;;;;;;5042382;28;20276;-78
2021/05/24 05:03:35;;;;;;;4.43;2.50;;;10.10;85.30;;;;;;5046570;28;20181;-76
2021/05/24 05:06:01;;;;;;;3.87;2.63;;;10.20;84.90;;;;;;5037489;28;20225;-77
2021/05/24 05:08:27;;;;;;;7.00;2.27;;;10.20;84.90;;;;;;5046326;28;20184;-77
2021/05/24 05:10:53;;;;;;;3.40;2.30;;;10.30;85.00;;;;;;5057628;28;20465;-76
2021/05/24 05:13:18;;;;;;;6.30;2.90;;;10.40;84.40;;;;;;5040365;28;20177;-77
2021/05/24 05:15:44;;;;;;;4.40;3.17;;;10.40;84.10;;;;;;5052991;28;20257;-77
2021/05/24 05:18:10;;;;;;;5.73;3.53;;;10.40;84.30;;;;;;5047401;28;20185;-77
2021/05/24 05:20:35;;;;;;;4.50;3.07;;;10.50;84.40;;;;;;5045300;28;20188;-76
2021/05/24 05:23:01;;;;;;;5.73;2.80;;;10.60;84.30;;;;;;5049947;28;20173;-77
2021/05/24 05:25:27;;;;;;;6.30;3.00;;;10.70;82.40;;;;;;5046905;28;20243;-76
2021/05/24 05:27:53;;;;;;;5.80;3.53;;;10.80;82.50;;;;;;5041976;28;20698;-77
2021/05/24 05:30:19;;;;;;;5.00;3.20;;;10.50;83.00;;;;;;5037666;28;20213;-78
2021/05/24 05:32:45;;;;;;;4.23;3.40;;;10.60;83.60;;;;;;5042394;28;20192;-77
2021/05/24 05:35:11;;;;;;;5.20;3.10;;;10.50;83.70;;;;;;5039869;28;20824;-76
2021/05/24 05:37:37;;;;;;;4.87;3.10;;;10.60;83.40;;;;;;5043241;28;20189;-77
2021/05/24 05:40:04;;;;;;;5.67;2.90;;;10.80;82.70;;;;;;5045399;28;20435;-77
2021/05/24 05:42:29;;;;;;;7.00;3.70;;;11.00;81.40;;;;;;5041319;28;20435;-77
2021/05/24 05:44:55;;;;;;;5.53;2.70;;;11.10;80.60;;;;;;5038612;28;20492;-75
2021/05/24 05:47:21;;;;;;;7.30;3.30;;;11.20;80.30;;;;;;5043865;28;20192;-76
2021/05/24 05:49:48;;;;;;;4.40;3.33;;;11.10;80.30;;;;;;5032992;28;20208;-75
2021/05/24 05:52:17;;;;;;;3.70;2.53;;;11.20;80.20;;;;;;5033292;28;20459;-76
2021/05/24 05:54:43;;;;;;;4.10;2.80;;;11.30;79.60;;;;;;5046917;28;20454;-76
2021/05/24 05:57:09;;;;;;;3.20;2.93;;;11.20;79.50;;;;;;5043273;28;20451;-75
2021/05/24 05:59:35;;;;;;;5.37;3.00;;;11.30;79.50;;;;;;5053319;28;20450;-76
2021/05/24 06:02:00;;;;;;;4.27;2.80;;;11.50;78.10;;;;;;5045318;28;20956;-76
2021/05/24 06:04:26;;;;;;;3.80;2.70;;;11.50;78.40;;;;;;5036080;28;20174;-75
2021/05/24 06:06:52;;;;;;;4.23;3.13;;;11.60;77.80;;;;;;5043885;28;20271;-77
2021/05/24 06:09:17;;;;;;;4.77;3.07;;;11.60;77.30;;;;;;5046596;28;20935;-74
2021/05/24 06:11:43;;;;;;;4.70;2.60;;;11.40;78.00;;;;;;5044583;28;20181;-75
2021/05/24 06:14:09;;;;;;;4.53;3.03;;;11.50;78.60;;;;;;5046191;28;20176;-76
2021/05/24 06:16:35;;;;;;;4.30;2.90;;;11.70;78.10;;;;;;5041390;28;20203;-77
2021/05/24 06:19:00;;;;;;;4.67;3.20;;;11.90;78.10;;;;;;5037803;28;20641;-78
2021/05/24 06:21:26;;;;;;;3.57;2.80;;;11.90;77.40;;;;;;5044367;28;20189;-77
2021/05/24 06:23:52;;;;;;;4.40;2.57;;;12.00;77.80;;;;;;5046184;28;20184;-76
2021/05/24 06:26:17;;;;;;;3.40;1.70;;;12.10;73.90;;;;;;5041395;28;20587;-75
2021/05/24 06:28:43;;;;;;;4.10;2.30;;;12.10;72.70;;;;;;5038826;28;20185;-76
2021/05/24 06:31:09;;;;;;;2.67;2.03;;;12.20;72.40;;;;;;5043357;28;20238;-75
2021/05/24 06:33:35;;;;;;;2.73;2.60;;;12.20;72.00;;;;;;5046180;28;20212;-78
2021/05/24 06:36:00;;;;;;;3.83;2.60;;;12.10;72.90;;;;;;5041309;28;20219;-76
2021/05/24 06:38:26;;;;;;;4.37;2.63;;;12.00;73.30;;;;;;5037626;28;20255;-78
2021/05/24 06:40:52;;;;;;;8.43;2.40;;;12.00;73.50;;;;;;5043450;28;20185;-76
2021/05/24 06:43:20;;;;;;;5.50;2.50;;;12.20;73.30;;;;;;5034132;28;20227;-76
2021/05/24 06:45:46;;;;;;;5.13;2.30;;;12.50;72.40;;;;;;5043158;28;20440;-75
2021/05/24 06:48:11;;;;;;;4.90;2.40;;;12.30;71.80;;;;;;5035125;28;20438;-75
2021/05/24 06:50:37;;;;;;;4.40;2.53;;;12.50;71.60;;;;;;5048744;28;20211;-75
2021/05/24 06:53:03;;;;;;;3.87;2.70;;;12.80;70.40;;;;;;5039115;28;20208;-76
2021/05/24 06:55:28;;;;;;;3.80;2.50;;;13.00;69.50;;;;;;5039247;28;20201;-77
2021/05/24 06:57:54;;;;;;;3.87;2.20;;;13.20;69.20;;;;;;5055077;28;20215;-75
2021/05/24 07:00:20;;;;;;;4.60;2.60;;;13.30;69.10;;;;;;5045141;28;20536;-76
2021/05/24 07:02:47;;;;;;;3.57;1.93;;;13.40;68.30;;;;;;5041008;28;20237;-78
2021/05/24 07:05:14;;;;;;;6.03;2.40;;;13.40;67.90;;;;;;5041512;28;20200;-74
2021/05/24 07:07:40;;;;;;;3.20;2.00;;;13.50;66.90;;;;;;5054358;28;20431;-76
2021/05/24 07:10:07;;;;;;;2.27;2.10;;;13.40;67.20;;;;;;5048553;28;20723;-76
2021/05/24 07:12:33;;;;;;;3.93;2.13;;;13.40;66.70;;;;;;5037809;28;20648;-77
2021/05/24 07:15:00;;;;;;;2.63;2.20;;;13.50;67.70;;;;;;5047338;28;20451;-75
2021/05/24 07:17:26;;;;;;;6.30;3.17;;;13.60;67.70;;;;;;5048689;28;20464;-78
2021/05/24 07:19:51;;;;;;;6.30;3.80;;;13.80;67.20;;;;;;5052087;28;20432;-75
2021/05/24 07:22:17;;;;;;;9.53;3.60;;;13.80;67.70;;;;;;5035014;28;20189;-76
2021/05/24 07:24:43;;;;;;;6.33;4.10;;;13.90;68.50;;;;;;5042708;28;20549;-75
2021/05/24 07:27:09;;;;;;;6.50;3.93;;;13.80;70.10;;;;;;5039340;28;20448;-76
2021/05/24 07:29:35;;;;;;;6.90;3.63;;;13.80;70.50;;;;;;5042528;28;20266;-77
2021/05/24 07:32:00;;;;;;;6.83;3.97;;;13.50;72.60;;;;;;5034999;28;20196;-76
2021/05/24 07:34:26;;;;;;;6.77;3.93;;;13.60;72.90;;;;;;5042248;28;20594;-76
2021/05/24 07:36:53;;;;;;;9.30;3.73;;;13.50;73.60;;;;;;5043271;28;20442;-76
2021/05/24 07:39:18;;;;;;;5.40;3.50;;;13.50;72.90;;;;;;5030624;28;20234;-76
2021/05/24 07:41:44;;;;;;;5.50;3.80;;;13.30;73.30;;;;;;5026981;28;20455;-74
2021/05/24 07:44:10;;;;;;;6.37;4.27;;;13.50;74.00;;;;;;5035289;28;20184;-74
2021/05/24 07:46:36;;;;;;;6.73;3.83;;;13.70;72.60;;;;;;5049878;28;20430;-74
2021/05/24 07:49:02;;;;;;;5.33;3.30;;;13.70;72.40;;;;;;5048328;28;20723;-73
2021/05/24 07:51:28;;;;;;;7.90;4.40;;;13.80;71.80;;;;;;5049916;28;20466;-75
2021/05/24 07:53:54;;;;;;;10.20;3.70;;;13.90;72.30;;;;;;5049721;28;20243;-73
2021/05/24 07:56:20;;;;;;;7.00;3.67;;;14.00;71.10;;;;;;5050732;28;20207;-74
2021/05/24 07:58:45;;;;;;;11.13;4.20;;;14.30;70.80;;;;;;5045541;28;20331;-73
2021/05/24 08:01:11;;;;;;;3.97;3.00;;;14.50;69.50;;;;;;5029330;28;20656;-75
2021/05/24 08:03:37;;;;;;;3.93;2.83;;;14.80;68.50;;;;;;5028930;28;20195;-74
2021/05/24 08:06:03;;;;;;;7.37;3.20;;;14.70;68.30;;;;;;5031835;28;20527;-76
2021/05/24 08:08:29;;;;;;;5.30;3.27;;;14.80;68.30;;;;;;5029838;28;20186;-73
2021/05/24 08:10:54;;;;;;;11.40;3.20;;;14.90;67.70;;;;;;5031220;28;20296;-73
2021/05/24 08:13:20;;;;;;;7.33;3.60;;;15.00;67.90;;;;;;5048489;28;20188;-74
2021/05/24 08:15:46;;;;;;;5.83;2.70;;;14.90;67.50;;;;;;5048379;28;20244;-74
2021/05/24 08:18:12;;;;;;;4.83;2.90;;;15.20;66.70;;;;;;5050704;28;20211;-74
2021/05/24 08:20:38;;;;;;;4.87;1.77;;;15.30;65.80;;;;;;5049376;28;20184;-74
2021/05/24 08:23:07;;;;;;;2.83;1.60;;;15.60;61.20;;;;;;5051675;28;20241;-77
2021/05/24 08:25:33;;;;;;;8.83;1.57;;;15.50;58.00;;;;;;5054104;28;20451;-74
2021/05/24 08:27:58;;;;;;;2.07;1.40;;;15.40;58.90;;;;;;5047101;28;20439;-75
2021/05/24 08:30:24;;;;;;;2.67;1.93;;;15.30;58.80;;;;;;5042757;28;20662;-74
2021/05/24 08:32:50;;;;;;;2.10;1.50;;;15.40;59.20;;;;;;5043972;28;20667;-75
2021/05/24 08:35:17;;;;;;;2.40;1.10;;;15.60;58.20;;;;;;5038560;28;20811;-76
2021/05/24 08:37:42;;;;;;;1.57;1.30;;;15.70;57.70;;;;;;5033305;28;20425;-74
2021/05/24 08:40:09;;;;;;;2.10;1.40;;;15.70;57.60;;;;;;5047618;28;20446;-75
2021/05/24 08:42:40;;;;;;;4.13;1.70;;;15.70;58.50;;;;;;5035559;28;20186;-76
2021/05/24 08:45:06;;;;;;;2.17;1.67;;;15.90;58.70;;;;;;5033893;28;20424;-77
2021/05/24 08:47:32;;;;;;;4.43;1.60;;;15.70;58.70;;;;;;5034846;28;20431;-76
2021/05/24 08:49:58;;;;;;;3.23;1.60;;;15.80;59.20;;;;;;5047930;28;20459;-74
2021/05/24 08:52:27;;;;;;;2.10;1.73;;;15.90;59.60;;;;;;5044264;28;20779;-76
2021/05/24 08:54:53;;;;;;;2.50;1.97;;;15.90;59.10;;;;;;5038986;28;20271;-74
2021/05/24 08:57:19;;;;;;;2.90;1.70;;;15.90;60.00;;;;;;5044178;28;20965;-75
2021/05/24 08:59:45;;;;;;;3.83;1.97;;;16.00;60.10;;;;;;5047012;28;20508;-77
2021/05/24 09:02:12;;;;;;;4.77;1.97;;;16.00;60.40;;;;;;5042812;28;20192;-75
2021/05/24 09:04:49;;;;;;;4.20;1.70;;;16.10;60.10;;;;;;5040072;28;20195;-77
2021/05/24 09:07:17;;;;;;;3.10;1.50;;;16.40;60.30;;;;;;5058990;28;20462;-76
2021/05/24 09:10:05;;;;;;;4.87;2.00;;;16.50;58.80;;;;;;5043114;28;20474;-77
2021/05/24 09:12:32;;;;;;;2.80;1.47;;;16.80;57.60;;;;;;5040341;28;20441;-76
2021/05/24 09:15:08;;;;;;;3.27;1.57;;;17.00;56.50;;;;;;5044901;28;20605;-75
2021/05/24 09:17:53;;;;;;;2.73;1.30;;;17.20;54.40;;;;;;5050519;28;20843;-75
2021/05/24 09:20:19;;;;;;;3.13;1.53;;;17.20;53.30;;;;;;5041130;28;20456;-76
2021/05/24 09:23:03;;;;;;;1.90;1.20;;;17.50;52.60;;;;;;5046351;28;20879;-77
2021/05/24 09:26:06;;;;;;;3.10;1.37;;;17.60;52.60;;;;;;5047107;28;20317;-78
2021/05/24 09:28:49;;;;;;;1.80;1.33;;;17.50;52.90;;;;;;5032444;28;20427;-75
2021/05/24 09:31:18;;;;;;;2.23;1.30;;;17.70;52.60;;;;;;5032372;28;20551;-75
2021/05/24 09:33:50;;;;;;;2.70;1.30;;;17.90;52.10;;;;;;5047417;28;20431;-77
2021/05/24 09:36:16;;;;;;;1.93;1.23;;;18.10;51.40;;;;;;5045868;28;20470;-75
2021/05/24 09:38:48;;;;;;;2.20;1.10;;;18.10;52.20;;;;;;5042720;28;20450;-75
2021/05/24 09:41:16;;;;;;;1.50;1.07;;;18.20;52.00;;;;;;5046712;28;20450;-78
2021/05/24 09:43:47;;;;;;;1.83;1.40;;;18.30;50.70;;;;;;5060082;28;20431;-74
2021/05/24 09:46:20;;;;;;;1.57;1.20;;;18.50;50.90;;;;;;5043359;28;20436;-78
2021/05/24 09:48:51;;;;;;;2.20;1.20;;;18.70;51.20;;;;;;5031920;28;20480;-75
2021/05/24 09:51:24;;;;;;;2.03;1.10;;;19.10;49.30;;;;;;5032844;28;20461;-76
2021/05/24 09:54:09;;;;;;;1.70;1.40;;;19.00;49.80;;;;;;5033270;28;20428;-76
2021/05/24 09:56:45;;;;;;;1.70;1.33;;;18.90;49.90;;;;;;5032851;28;20437;-76
2021/05/24 09:59:15;;;;;;;3.63;1.77;;;19.00;49.70;;;;;;5045039;28;20854;-75
2021/05/24 10:01:49;;;;;;;2.27;1.40;;;19.40;49.80;;;;;;5032164;28;20452;-77
2021/05/24 10:04:17;;;;;;;1.90;1.20;;;19.60;48.60;;;;;;5032966;28;20461;-76
2021/05/24 10:06:43;;;;;;;2.80;1.43;;;19.80;48.10;;;;;;5041515;28;20435;-76
2021/05/24 10:09:11;;;;;;;1.93;1.27;;;19.90;47.90;;;;;;5036627;28;20551;-75
2021/05/24 10:11:39;;;;;;;3.40;1.13;;;19.70;47.80;;;;;;5045508;28;20493;-74
2021/05/24 10:14:07;;;;;;;1.80;1.20;;;19.70;48.20;;;;;;5044632;28;20431;-76
2021/05/24 10:16:37;;;;;;;2.80;1.20;;;19.70;47.70;;;;;;5040985;28;20539;-76
2021/05/24 10:19:05;;;;;;;1.43;1.23;;;19.70;47.00;;;;;;5039257;28;20453;-74
2021/05/24 10:21:31;;;;;;;1.70;1.17;;;19.70;47.00;;;;;;5045181;28;20435;-76
2021/05/24 10:23:58;;;;;;;7.57;1.50;;;19.60;47.00;;;;;;5033887;28;20423;-75
2021/05/24 10:26:26;;;;;;;2.43;1.40;;;19.50;47.00;;;;;;5040948;28;20457;-77
2021/05/24 10:28:55;;;;;;;1.50;1.13;;;19.50;47.80;;;;;;5037256;28;20435;-77
2021/05/24 10:31:25;;;;;;;2.07;1.30;;;19.40;47.40;;;;;;5040693;28;20530;-75
2021/05/24 10:33:52;;;;;;;1.20;1.10;;;19.30;49.00;;;;;;5046455;28;20452;-74
2021/05/24 10:36:21;;;;;;;1.27;1.13;;;19.40;49.10;;;;;;5044694;28;20469;-76
2021/05/24 10:39:07;;;;;;;2.23;1.40;;;19.60;48.10;;;;;;5048948;28;20461;-76
2021/05/24 10:41:48;;;;;;;3.40;2.83;;;19.80;48.60;;;;;;5047821;28;20456;-73
2021/05/24 10:44:23;;;;;;;2.70;1.27;;;19.80;47.80;;;;;;5045197;28;20429;-75
2021/05/24 10:46:53;;;;;;;1.10;1.10;;;19.60;47.00;;;;;;5047903;28;20507;-77
2021/05/24 10:49:21;;;;;;;4.03;1.50;;;19.50;44.70;;;;;;5041808;28;20470;-75
2021/05/24 10:51:52;;;;;;;3.17;1.60;;;19.40;45.30;;;;;;5047477;28;20970;-75
2021/05/24 10:54:20;;;;;;;1.80;0.97;;;19.50;45.50;;;;;;5044132;28;20426;-75
2021/05/24 10:57:02;;;;;;;1.03;0.70;;;19.60;45.40;;;;;;5038252;28;20477;-75
2021/05/24 10:59:46;;;;;;;1.67;1.20;;;19.60;46.30;;;;;;5050059;28;20465;-74
2021/05/24 11:02:18;;;;;;;1.63;1.20;;;19.70;46.30;;;;;;5042418;28;20454;-74
2021/05/24 11:05:24;;;;;;;1.97;1.47;;;19.60;47.00;;;;;;5033252;28;20471;-75
2021/05/24 11:07:53;;;;;;;2.23;1.20;;;19.70;47.00;;;;;;5034825;28;20510;-74
2021/05/24 11:10:21;;;;;;;1.97;1.37;;;19.60;47.30;;;;;;5033813;28;20975;-76
2021/05/24 11:13:07;;;;;;;1.67;1.30;;;19.60;47.90;;;;;;5047904;28;20434;-77
2021/05/24 11:15:35;;;;;;;2.03;1.00;;;19.70;48.10;;;;;;5037380;28;20798;-77
2021/05/24 11:18:03;;;;;;;1.40;1.10;;;19.80;44.70;;;;;;5031205;28;20417;-75
2021/05/24 11:20:35;;;;;;;2.10;1.47;;;19.90;45.10;;;;;;5042690;28;20419;-76
2021/05/24 11:25:59;;;;;;;2.10;1.10;;;20.60;44.90;;;;;;5037452;28;20419;-74
2021/05/24 11:28:36;;;;;;;1.90;1.37;;;20.60;42.60;;;;;;5038101;28;20408;-77
2021/05/24 11:31:19;;;;;;;1.73;1.00;;;20.50;40.70;;;;;;5011082;28;20498;-76
2021/05/24 11:33:48;;;;;;;2.93;1.20;;;20.70;36.00;;;;;;5041160;28;20477;-75
2021/05/24 11:36:20;;;;;;;2.20;1.00;;;20.30;37.80;;;;;;5030815;28;20866;-75
2021/05/24 11:38:59;;;;;;;3.83;1.17;;;20.20;39.50;;;;;;5034042;28;20419;-75
2021/05/24 11:41:29;;;;;;;3.00;1.40;;;20.20;41.10;;;;;;5037152;28;20836;-74
2021/05/24 11:43:55;;;;;;;2.17;1.70;;;20.60;44.30;;;;;;5043572;28;20411;-74
2021/05/24 11:46:21;;;;;;;1.43;1.27;;;20.90;45.30;;;;;;5029331;28;20456;-75
2021/05/24 11:48:49;;;;;;;4.10;1.37;;;21.10;45.10;;;;;;5029267;28;20503;-73
2021/05/24 11:51:16;;;;;;;2.17;1.50;;;21.30;44.90;;;;;;5043909;28;20528;-75
2021/05/24 11:54:12;;;;;;;2.10;1.20;;;21.50;43.10;;;;;;5038609;28;20416;-76
2021/05/24 11:56:42;;;;;;;2.90;1.40;;;21.90;41.90;;;;;;5032544;28;20438;-75
2021/05/24 11:59:11;;;;;;;1.30;1.00;;;22.10;41.10;;;;;;5030098;28;20413;-75
2021/05/24 12:01:41;;;;;;;1.90;1.40;;;22.10;38.40;;;;;;5037457;28;20457;-76
2021/05/24 12:04:10;;;;;;;2.20;1.50;;;22.20;39.10;;;;;;5038430;28;20413;-75
2021/05/24 12:06:45;;;;;;;1.73;1.40;;;22.10;39.50;;;;;;5024832;28;20440;-75
2021/05/24 12:09:12;;;;;;;2.37;1.63;;;22.20;40.20;;;;;;5034719;28;20457;-78
2021/05/24 12:11:57;;;;;;;1.87;1.37;;;22.20;40.20;;;;;;5039304;28;20465;-76
2021/05/24 12:14:24;;;;;;;3.33;1.20;;;22.20;39.90;;;;;;5033172;28;20948;-76
2021/05/24 12:16:51;;;;;;;2.17;1.20;;;22.60;37.80;;;;;;5030398;28;20461;-75
2021/05/24 12:19:23;;;;;;;2.17;1.53;;;22.70;37.90;;;;;;5046277;28;20423;-77
2021/05/24 12:21:49;;;;;;;1.60;1.13;;;22.50;37.00;;;;;;5045377;28;20475;-76
2021/05/24 12:24:16;;;;;;;3.53;1.77;;;22.10;39.40;;;;;;5049626;28;20482;-75
2021/05/24 12:26:50;;;;;;;2.70;1.43;;;21.80;40.60;;;;;;5033628;28;20447;-74
2021/05/24 12:29:20;;;;;;;2.77;2.10;;;21.80;40.80;;;;;;5033859;28;20425;-76
2021/05/24 12:31:48;;;;;;;3.70;1.80;;;22.10;41.20;;;;;;5023846;28;20554;-75
2021/05/24 12:34:16;;;;;;;6.60;2.37;;;22.20;41.10;;;;;;5045751;28;20415;-76
2021/05/24 12:36:47;;;;;;;4.50;1.70;;;22.10;42.00;;;;;;5030923;28;20435;-76
2021/05/24 12:39:18;;;;;;;2.83;1.30;;;22.20;42.00;;;;;;5029921;28;20434;-75
2021/05/24 12:41:45;;;;;;;2.90;1.40;;;22.40;41.80;;;;;;5028255;28;20438;-75
2021/05/24 12:44:17;;;;;;;2.67;2.10;;;22.40;41.50;;;;;;5029824;28;20420;-76
2021/05/24 12:46:43;;;;;;;4.10;2.00;;;22.40;41.90;;;;;;5028606;28;20445;-75
2021/05/24 12:49:09;;;;;;;3.07;1.60;;;22.40;42.30;;;;;;5040149;28;20790;-75
2021/05/24 12:51:35;;;;;;;2.17;1.40;;;22.30;42.00;;;;;;5035121;28;20588;-75
2021/05/24 12:54:06;;;;;;;2.30;1.53;;;22.30;41.80;;;;;;5048634;28;20421;-75
2021/05/24 12:56:45;;;;;;;3.40;1.90;;;22.30;42.30;;;;;;5036256;28;20496;-76